Time;durP1;ratioP1;P1;durP2;ratioP2;P2;SDS_P1;SDS_P2;PMS_P1;PMS_P2;Temp;Humidity;BMP_temperature;BMP_pressure;BME280_temperature;BME280_humidity;BME280_pressure;Samples;Min_cycle;Max_cycle;Signal;HPM_P1;HPM_P2
2022/12/28 00:00:08;;;;;;;;;;;;;;;-144.47;100.00;61586.06;5005853;28;19940;-86
2022/12/28 00:02:37;;;;;;;;;;;;;;;-144.47;100.00;61586.06;5029167;28;19913;-86
2022/12/28 00:05:03;;;;;;;;;;;;;;;-144.47;100.00;61586.06;5023351;28;19975;-85
2022/12/28 00:07:28;;;;;;;;;;;;;;;-144.47;100.00;61586.06;5004265;28;19921;-85
2022/12/28 00:09:54;;;;;;;;;;;;;;;-144.47;100.00;61586.06;5012216;28;19917;-85
2022/12/28 00:12:22;;;;;;;;;;;;;;;-144.47;100.00;61586.06;5021247;28;19971;-86
2022/12/28 00:14:48;;;;;;;;;;;;;;;-144.47;100.00;61586.06;5024916;28;20373;-86
2022/12/28 00:17:13;;;;;;;;;;;;;;;-144.47;100.00;61586.06;5023421;28;19924;-86
2022/12/28 00:19:39;;;;;;;;;;;;;;;-144.47;100.00;61586.06;5023575;28;19972;-86
2022/12/28 00:22:04;;;;;;;;;;;;;;;-144.47;100.00;61586.06;5024251;28;19924;-85
2022/12/28 00:24:33;;;;;;;;;;;;;;;-144.47;100.00;61586.06;5023653;28;19966;-85
2022/12/28 00:26:59;;;;;;;;;;;;;;;-144.47;100.00;61586.06;5020494;28;19917;-86
2022/12/28 00:29:24;;;;;;;;;;;;;;;-144.47;100.00;61586.06;5016724;28;19917;-85
2022/12/28 00:31:50;;;;;;;;;;;;;;;-144.47;100.00;61586.06;5001132;28;19917;-85
2022/12/28 00:34:22;;;;;;;;;;;;;;;-144.47;100.00;61586.06;5020484;28;20393;-85
2022/12/28 00:36:50;;;;;;;;;;;;;;;-144.47;100.00;61586.06;5021104;28;20006;-84
2022/12/28 00:39:16;;;;;;;;;;;;;;;-144.47;100.00;61586.06;5002311;28;19924;-85
2022/12/28 00:41:41;;;;;;;;;;;;;;;-144.47;100.00;61586.06;5004434;28;20386;-86
2022/12/28 00:44:07;;;;;;;;;;;;;;;-144.47;100.00;61586.06;5022113;28;19937;-86
2022/12/28 00:46:33;;;;;;;;;;;;;;;-144.47;100.00;61586.06;5020875;28;19924;-86
2022/12/28 00:48:58;;;;;;;;;;;;;;;-144.47;100.00;61586.06;5022385;28;19917;-86
2022/12/28 00:51:25;;;;;;;;;;;;;;;-144.47;100.00;61586.06;5014911;28;19918;-85
2022/12/28 00:53:50;;;;;;;;;;;;;;;-144.47;100.00;61586.06;5021134;28;19917;-85
2022/12/28 00:56:17;;;;;;;;;;;;;;;-144.47;100.00;61586.06;5019459;28;19986;-84
2022/12/28 00:58:43;;;;;;;;;;;;;;;-144.47;100.00;61586.06;5019594;28;20442;-85
2022/12/28 01:01:11;;;;;;;;;;;;;;;-144.47;100.00;61586.06;5017126;28;20324;-85
2022/12/28 01:03:36;;;;;;;;;;;;;;;-144.47;100.00;61586.06;5020177;28;19917;-86
2022/12/28 01:06:05;;;;;;;;;;;;;;;-144.47;100.00;61586.06;5018246;28;19922;-85
2022/12/28 01:08:31;;;;;;;;;;;;;;;-144.47;100.00;61586.06;5004478;28;19917;-85
2022/12/28 01:10:56;;;;;;;;;;;;;;;-144.47;100.00;61586.06;5001534;28;19917;-85
2022/12/28 01:13:21;;;;;;;;;;;;;;;-144.47;100.00;61586.06;5022472;28;19921;-84
2022/12/28 01:15:47;;;;;;;;;;;;;;;-144.47;100.00;61586.06;5020793;28;20015;-85
2022/12/28 01:18:12;;;;;;;;;;;;;;;-144.47;100.00;61586.06;5008459;28;19932;-85
2022/12/28 01:20:38;;;;;;;;;;;;;;;-144.47;100.00;61586.06;5025654;28;19924;-85
2022/12/28 01:23:04;;;;;;;;;;;;;;;-144.47;100.00;61586.06;5032306;28;19917;-85
2022/12/28 01:25:31;;;;;;;;;;;;;;;-144.47;100.00;61586.06;5010497;28;19960;-84
2022/12/28 01:27:57;;;;;;;;;;;;;;;-144.47;100.00;61586.06;5046841;28;19924;-85
2022/12/28 01:30:24;;;;;;;;;;;;;;;-144.47;100.00;61586.06;5020142;28;20401;-85
2022/12/28 01:32:49;;;;;;;;;;;;;;;-144.47;100.00;61586.06;5022714;28;19932;-85
2022/12/28 01:35:19;;;;;;;;;;;;;;;-144.47;100.00;61586.06;5020090;28;20373;-85
2022/12/28 01:37:45;;;;;;;;;;;;;;;-144.47;100.00;61586.06;5003356;28;19933;-86
2022/12/28 01:40:13;;;;;;;;;;;;;;;-144.47;100.00;61586.06;5020411;28;19975;-85
2022/12/28 01:42:40;;;;;;;;;;;;;;;-144.47;100.00;61586.06;5017183;28;19924;-86
2022/12/28 01:45:16;;;;;;;;;;;;;;;-144.47;100.00;61586.06;5023466;28;19917;-85
2022/12/28 01:47:42;;;;;;;;;;;;;;;-144.47;100.00;61586.06;5022620;28;20048;-85
2022/12/28 01:50:10;;;;;;;;;;;;;;;-144.47;100.00;61586.06;5024422;28;19963;-87
2022/12/28 01:52:43;;;;;;;;;;;;;;;-144.47;100.00;61586.06;5023195;28;20388;-85
2022/12/28 01:55:23;;;;;;;;;;;;;;;-144.47;100.00;61586.06;5022547;28;20271;-86
2022/12/28 01:57:53;;;;;;;;;;;;;;;-144.47;100.00;61586.06;4979439;28;1205410;-87
2022/12/28 02:00:19;;;;;;;;;;;;;;;-144.47;100.00;61586.06;5007064;28;19928;-87
2022/12/28 02:02:59;;;;;;;;;;;;;;;-144.47;100.00;61586.06;5021629;28;19917;-86
2022/12/28 02:05:30;;;;;;;;;;;;;;;-144.47;100.00;61586.06;5003112;28;19918;-86
2022/12/28 02:07:56;;;;;;;;;;;;;;;-144.47;100.00;61586.06;5029426;28;19928;-84
2022/12/28 02:10:23;;;;;;;;;;;;;;;-144.47;100.00;61586.06;5044509;28;19916;-86
2022/12/28 02:12:48;;;;;;;;;;;;;;;-144.47;100.00;61586.06;5043461;28;19924;-85
2022/12/28 02:15:14;;;;;;;;;;;;;;;-144.47;100.00;61586.06;5043273;28;19913;-86
2022/12/28 02:17:40;;;;;;;;;;;;;;;-144.47;100.00;61586.06;5041719;28;19924;-86
2022/12/28 02:20:06;;;;;;;;;;;;;;;-144.47;100.00;61586.06;5041425;28;19916;-87
2022/12/28 02:22:34;;;;;;;;;;;;;;;-144.47;100.00;61586.06;5003530;28;19917;-87
2022/12/28 02:25:21;;;;;;;;;;;;;;;-144.47;100.00;61586.06;5023161;28;19964;-86
2022/12/28 02:27:46;;;;;;;;;;;;;;;-144.47;100.00;61586.06;5022757;28;19925;-86
2022/12/28 02:30:12;;;;;;;;;;;;;;;-144.47;100.00;61586.06;5022793;28;19917;-86
2022/12/28 02:32:37;;;;;;;;;;;;;;;-144.47;100.00;61586.06;5026647;28;19917;-86
2022/12/28 02:35:20;;;;;;;;;;;;;;;-144.47;100.00;61586.06;5025015;28;19917;-86
2022/12/28 02:37:53;;;;;;;;;;;;;;;-144.47;100.00;61586.06;5030422;28;19923;-87
2022/12/28 02:40:23;;;;;;;;;;;;;;;-144.47;100.00;61586.06;5031142;28;19986;-86
2022/12/28 02:42:50;;;;;;;;;;;;;;;-144.47;100.00;61586.06;5029632;28;19924;-86
2022/12/28 02:51:28;;;;;;;;;;;;;;;-144.47;100.00;61586.06;4962209;28;19938;-86
2022/12/28 02:53:55;;;;;;;;;;;;;;;-144.47;100.00;61586.06;4960490;28;19926;-85
2022/12/28 02:56:27;;;;;;;;;;;;;;;-144.47;100.00;61586.06;4962657;28;19918;-85
2022/12/28 02:59:18;;;;;;;;;;;;;;;-144.47;100.00;61586.06;4956430;28;19922;-86
2022/12/28 03:01:56;;;;;;;;;;;;;;;-144.47;100.00;61586.06;4954973;28;19914;-83
2022/12/28 03:05:00;;;;;;;;;;;;;;;-144.47;100.00;61586.06;4972206;28;19988;-85
2022/12/28 03:10:31;;;;;;;;;;;;;;;-144.47;100.00;61586.06;4887293;29;20037;-85
2022/12/28 03:16:02;;;;;;;;;;;;;;;-144.47;100.00;61586.06;4893265;29;19923;-86
2022/12/28 03:32:26;;;;;;;;;;;;;;;-144.47;100.00;61586.06;4959965;28;20302;-86
2022/12/28 03:34:51;;;;;;;;;;;;;;;-144.47;100.00;61586.06;4982790;28;19922;-86
2022/12/28 03:37:17;;;;;;;;;;;;;;;-144.47;100.00;61586.06;4980192;28;19961;-86
2022/12/28 03:39:47;;;;;;;;;;;;;;;-144.47;100.00;61586.06;5048314;28;19913;-85
2022/12/28 03:45:05;;;;;;;;;;;;;;;-144.47;100.00;61586.06;5033998;28;19921;-85
2022/12/28 03:47:32;;;;;;;;;;;;;;;-144.47;100.00;61586.06;5034347;28;19913;-86
2022/12/28 03:49:57;;;;;;;;;;;;;;;-144.47;100.00;61586.06;5037622;28;19901;-85
2022/12/28 03:52:24;;;;;;;;;;;;;;;-144.47;100.00;61586.06;5042331;28;19928;-86
2022/12/28 03:54:50;;;;;;;;;;;;;;;-144.47;100.00;61586.06;5048488;28;19917;-84
2022/12/28 03:57:18;;;;;;;;;;;;;;;-144.47;100.00;61586.06;5046966;28;19917;-83
2022/12/28 03:59:49;;;;;;;;;;;;;;;-144.47;100.00;61586.06;5045622;28;19925;-85
2022/12/28 04:02:14;;;;;;;;;;;;;;;-144.47;100.00;61586.06;5029407;28;19928;-83
2022/12/28 04:04:40;;;;;;;;;;;;;;;-144.47;100.00;61586.06;5023090;28;19960;-86
2022/12/28 04:07:08;;;;;;;;;;;;;;;-144.47;100.00;61586.06;5048140;28;19917;-86
2022/12/28 04:09:35;;;;;;;;;;;;;;;-144.47;100.00;61586.06;5032759;28;19966;-86
2022/12/28 04:12:01;;;;;;;;;;;;;;;-144.47;100.00;61586.06;5030729;28;19917;-85
2022/12/28 04:14:49;;;;;;;;;;;;;;;-144.47;100.00;61586.06;5010125;28;19992;-84
2022/12/28 04:17:15;;;;;;;;;;;;;;;-144.47;100.00;61586.06;5035190;28;19921;-83
2022/12/28 04:19:41;;;;;;;;;;;;;;;-144.47;100.00;61586.06;5032886;28;19991;-86
2022/12/28 04:22:06;;;;;;;;;;;;;;;-144.47;100.00;61586.06;5029641;28;19948;-87
2022/12/28 04:24:33;;;;;;;;;;;;;;;-144.47;100.00;61586.06;5026519;28;20348;-85
2022/12/28 04:26:59;;;;;;;;;;;;;;;-144.47;100.00;61586.06;5025469;28;19917;-85
2022/12/28 04:29:24;;;;;;;;;;;;;;;-144.47;100.00;61586.06;5028409;28;19976;-85
2022/12/28 04:31:59;;;;;;;;;;;;;;;-144.47;100.00;61586.06;5017586;28;20262;-86
2022/12/28 04:34:24;;;;;;;;;;;;;;;-144.47;100.00;61586.06;5016139;28;19917;-86
2022/12/28 04:36:55;;;;;;;;;;;;;;;-144.47;100.00;61586.06;5027375;28;19996;-87
2022/12/28 04:39:22;;;;;;;;;;;;;;;-144.47;100.00;61586.06;5027288;28;19921;-85
2022/12/28 04:41:47;;;;;;;;;;;;;;;-144.47;100.00;61586.06;5021819;28;19924;-85
2022/12/28 04:44:13;;;;;;;;;;;;;;;-144.47;100.00;61586.06;5017527;28;19925;-86
2022/12/28 04:46:38;;;;;;;;;;;;;;;-144.47;100.00;61586.06;5027424;28;20373;-85
2022/12/28 04:49:04;;;;;;;;;;;;;;;-144.47;100.00;61586.06;5028170;28;19917;-86
2022/12/28 04:51:32;;;;;;;;;;;;;;;-144.47;100.00;61586.06;5036351;28;19952;-86
2022/12/28 04:53:57;;;;;;;;;;;;;;;-144.47;100.00;61586.06;5012345;28;19941;-87
2022/12/28 04:56:24;;;;;;;;;;;;;;;-144.47;100.00;61586.06;5022209;28;19921;-86
2022/12/28 04:58:54;;;;;;;;;;;;;;;-144.47;100.00;61586.06;5021257;28;19920;-86
2022/12/28 05:01:19;;;;;;;;;;;;;;;-144.47;100.00;61586.06;5026007;28;19917;-86
2022/12/28 05:03:45;;;;;;;;;;;;;;;-144.47;100.00;61586.06;5023313;28;19924;-86
2022/12/28 05:06:12;;;;;;;;;;;;;;;-144.47;100.00;61586.06;5022908;28;19925;-87
2022/12/28 05:08:38;;;;;;;;;;;;;;;-144.47;100.00;61586.06;5020312;28;20317;-85
2022/12/28 05:11:05;;;;;;;;;;;;;;;-144.47;100.00;61586.06;5024775;28;19917;-85
2022/12/28 05:13:33;;;;;;;;;;;;;;;-144.47;100.00;61586.06;5025053;28;20388;-86
2022/12/28 05:24:03;;;;;;;;;;;;;;;-144.47;100.00;61586.06;5034698;28;20276;-85
2022/12/28 05:26:35;;;;;;;;;;;;;;;-144.47;100.00;61586.06;5036939;28;19917;-86
2022/12/28 05:29:07;;;;;;;;;;;;;;;-144.47;100.00;61586.06;5030952;28;20321;-86
2022/12/28 05:31:41;;;;;;;;;;;;;;;-144.47;100.00;61586.06;5011652;28;19921;-85
2022/12/28 05:34:10;;;;;;;;;;;;;;;-144.47;100.00;61586.06;5016913;28;19971;-85
2022/12/28 05:36:38;;;;;;;;;;;;;;;-144.47;100.00;61586.06;5040267;28;19963;-86
2022/12/28 05:39:10;;;;;;;;;;;;;;;-144.47;100.00;61586.06;5040587;28;19924;-87
2022/12/28 05:41:38;;;;;;;;;;;;;;;-144.47;100.00;61586.06;5040877;28;19984;-86
2022/12/28 05:44:04;;;;;;;;;;;;;;;-144.47;100.00;61586.06;5039871;28;19917;-86
2022/12/28 05:46:39;;;;;;;;;;;;;;;-144.47;100.00;61586.06;5005639;28;20013;-87
2022/12/28 05:49:10;;;;;;;;;;;;;;;-144.47;100.00;61586.06;5036606;28;19913;-86
2022/12/28 05:51:39;;;;;;;;;;;;;;;-144.47;100.00;61586.06;5038850;28;20277;-87
2022/12/28 05:54:10;;;;;;;;;;;;;;;-144.47;100.00;61586.06;5037120;28;20281;-86
2022/12/28 05:56:42;;;;;;;;;;;;;;;-144.47;100.00;61586.06;5022294;28;19917;-86
2022/12/28 05:59:17;;;;;;;;;;;;;;;-144.47;100.00;61586.06;5022007;28;19920;-86
2022/12/28 06:01:43;;;;;;;;;;;;;;;-144.47;100.00;61586.06;5040712;28;19925;-84
2022/12/28 06:04:25;;;;;;;;;;;;;;;-144.47;100.00;61586.06;5038545;28;19921;-85
2022/12/28 06:07:05;;;;;;;;;;;;;;;-144.47;100.00;61586.06;5022084;28;20286;-85
2022/12/28 06:09:34;;;;;;;;;;;;;;;-144.47;100.00;61586.06;5033463;28;19957;-85
2022/12/28 06:12:06;;;;;;;;;;;;;;;-144.47;100.00;61586.06;5023102;28;19924;-85
2022/12/28 06:14:37;;;;;;;;;;;;;;;-144.47;100.00;61586.06;5035183;28;20274;-85
2022/12/28 06:17:06;;;;;;;;;;;;;;;-144.47;100.00;61586.06;5039105;28;19921;-86
2022/12/28 06:19:38;;;;;;;;;;;;;;;-144.47;100.00;61586.06;5040148;28;19921;-85
2022/12/28 06:22:28;;;;;;;;;;;;;;;-144.47;100.00;61586.06;5038644;28;20274;-86
2022/12/28 06:24:57;;;;;;;;;;;;;;;-144.47;100.00;61586.06;5022979;28;19917;-87
2022/12/28 06:27:36;;;;;;;;;;;;;;;-144.47;100.00;61586.06;5023050;28;19991;-86
2022/12/28 06:30:33;;;;;;;;;;;;;;;-144.47;100.00;61586.06;5025861;28;19982;-87
2022/12/28 06:33:25;;;;;;;;;;;;;;;-144.47;100.00;61586.06;5008510;28;20285;-85
2022/12/28 06:35:51;;;;;;;;;;;;;;;-144.47;100.00;61586.06;5020188;28;19924;-85
2022/12/28 06:38:16;;;;;;;;;;;;;;;-144.47;100.00;61586.06;5023945;28;19995;-86
2022/12/28 06:41:00;;;;;;;;;;;;;;;-144.47;100.00;61586.06;5043119;28;19975;-85
2022/12/28 06:43:38;;;;;;;;;;;;;;;-144.47;100.00;61586.06;5023144;28;19912;-86
2022/12/28 06:46:07;;;;;;;;;;;;;;;-144.47;100.00;61586.06;5021847;28;19917;-86
2022/12/28 06:48:33;;;;;;;;;;;;;;;-144.47;100.00;61586.06;5021356;28;19920;-86
2022/12/28 06:51:43;;;;;;;;;;;;;;;-144.47;100.00;61586.06;5022645;28;19917;-86
2022/12/28 06:54:10;;;;;;;;;;;;;;;-144.47;100.00;61586.06;5008175;28;19932;-87
2022/12/28 06:56:36;;;;;;;;;;;;;;;-144.47;100.00;61586.06;5021925;28;20277;-86
2022/12/28 06:59:03;;;;;;;;;;;;;;;-144.47;100.00;61586.06;4977343;23;19930;-81
2022/12/28 07:01:30;;;;;;;;;;;;;;;-144.47;100.00;61586.06;4923646;28;19923;-80
2022/12/28 07:03:56;;;;;;;;;;;;;;;-144.47;100.00;61586.06;4927358;29;19922;-82
2022/12/28 07:06:23;;;;;;;;;;;;;;;-144.47;100.00;61586.06;4938738;29;19926;-82
2022/12/28 07:08:51;;;;;;;;;;;;;;;-144.47;100.00;61586.06;4922254;28;20287;-82
2022/12/28 07:11:19;;;;;;;;;;;;;;;-144.47;100.00;61586.06;4938517;29;19919;-82
2022/12/28 07:13:45;;;;;;;;;;;;;;;-144.47;100.00;61586.06;4922341;29;19918;-80
2022/12/28 07:16:18;;;;;;;;;;;;;;;-144.47;100.00;61586.06;4920830;29;19922;-81
2022/12/28 07:18:44;;;;;;;;;;;;;;;-144.47;100.00;61586.06;4922666;29;19925;-81
2022/12/28 07:21:11;;;;;;;;;;;;;;;-144.47;100.00;61586.06;4921985;29;20001;-81
2022/12/28 07:23:37;;;;;;;;;;;;;;;-144.47;100.00;61586.06;4923822;29;19918;-81
2022/12/28 07:26:13;;;;;;;;;;;;;;;-144.47;100.00;61586.06;4921345;29;19985;-82
2022/12/28 07:28:39;;;;;;;;;;;;;;;-144.47;100.00;61586.06;4927007;28;19919;-81
2022/12/28 07:31:08;;;;;;;;;;;;;;;-144.47;100.00;61586.06;4927686;29;19919;-81
2022/12/28 07:33:34;;;;;;;;;;;;;;;-144.47;100.00;61586.06;4926071;29;20387;-80
2022/12/28 07:36:00;;;;;;;;;;;;;;;-144.47;100.00;61586.06;4928904;29;19926;-82
2022/12/28 07:38:25;;;;;;;;;;;;;;;-144.47;100.00;61586.06;4926737;29;19919;-82
2022/12/28 07:40:51;;;;;;;;;;;;;;;-144.47;100.00;61586.06;4924109;29;20006;-82
2022/12/28 07:43:16;;;;;;;;;;;;;;;-144.47;100.00;61586.06;4922497;29;20001;-81
2022/12/28 07:45:41;;;;;;;;;;;;;;;-144.47;100.00;61586.06;4922342;29;19923;-81
2022/12/28 07:48:07;;;;;;;;;;;;;;;-144.47;100.00;61586.06;4923008;29;19919;-81
2022/12/28 07:50:32;;;;;;;;;;;;;;;-144.47;100.00;61586.06;4921122;29;19961;-82
2022/12/28 07:52:59;;;;;;;;;;;;;;;-144.47;100.00;61586.06;4923548;29;20350;-80
2022/12/28 07:55:28;;;;;;;;;;;;;;;-144.47;100.00;61586.06;4920958;29;19924;-81
2022/12/28 07:57:54;;;;;;;;;;;;;;;-144.47;100.00;61586.06;4923290;29;19918;-82
2022/12/28 08:00:19;;;;;;;;;;;;;;;-144.47;100.00;61586.06;4925652;28;19997;-82
2022/12/28 08:02:44;;;;;;;;;;;;;;;-144.47;100.00;61586.06;4929416;29;19969;-82
2022/12/28 08:05:09;;;;;;;;;;;;;;;-144.47;100.00;61586.06;4924327;29;19919;-82
2022/12/28 08:07:35;;;;;;;;;;;;;;;-144.47;100.00;61586.06;4922817;29;19926;-82
2022/12/28 08:10:00;;;;;;;;;;;;;;;-144.47;100.00;61586.06;4922068;28;19926;-82
2022/12/28 08:12:25;;;;;;;;;;;;;;;-144.47;100.00;61586.06;4920433;29;19919;-82
2022/12/28 08:14:51;;;;;;;;;;;;;;;-144.47;100.00;61586.06;4922671;29;20379;-81
2022/12/28 08:17:16;;;;;;;;;;;;;;;-144.47;100.00;61586.06;4920036;29;19926;-81
2022/12/28 08:19:41;;;;;;;;;;;;;;;-144.47;100.00;61586.06;4921554;29;19926;-83
2022/12/28 08:22:07;;;;;;;;;;;;;;;-144.47;100.00;61586.06;4922245;29;19965;-82
2022/12/28 08:24:32;;;;;;;;;;;;;;;-144.47;100.00;61586.06;4920325;29;19958;-82
2022/12/28 08:26:57;;;;;;;;;;;;;;;-144.47;100.00;61586.06;4921665;28;19922;-82
2022/12/28 08:29:22;;;;;;;;;;;;;;;-144.47;100.00;61586.06;4924047;28;19927;-82
2022/12/28 08:31:48;;;;;;;;;;;;;;;-144.47;100.00;61586.06;4922473;29;19922;-82
2022/12/28 08:34:15;;;;;;;;;;;;;;;-144.47;100.00;61586.06;4922015;29;20064;-82
2022/12/28 08:36:41;;;;;;;;;;;;;;;-144.47;100.00;61586.06;4921293;28;19941;-82
2022/12/28 08:39:06;;;;;;;;;;;;;;;-144.47;100.00;61586.06;4922051;29;20434;-82
2022/12/28 08:41:32;;;;;;;;;;;;;;;-144.47;100.00;61586.06;4922086;29;19923;-82
2022/12/28 08:43:57;;;;;;;;;;;;;;;-144.47;100.00;61586.06;4925550;29;19926;-81
2022/12/28 08:46:27;;;;;;;;;;;;;;;-144.47;100.00;61586.06;4922626;29;19943;-81
2022/12/28 08:48:54;;;;;;;;;;;;;;;-144.47;100.00;61586.06;4924634;29;19923;-81
2022/12/28 08:51:20;;;;;;;;;;;;;;;-144.47;100.00;61586.06;4921025;28;20399;-82
2022/12/28 08:53:46;;;;;;;;;;;;;;;-144.47;100.00;61586.06;4924931;29;19941;-82
2022/12/28 08:56:13;;;;;;;;;;;;;;;-144.47;100.00;61586.06;4924708;29;19922;-82
2022/12/28 08:58:39;;;;;;;;;;;;;;;-144.47;100.00;61586.06;4927668;28;20033;-81
2022/12/28 09:01:12;;;;;;;;;;;;;;;-144.47;100.00;61586.06;4939907;28;20367;-82
2022/12/28 09:03:39;;;;;;;;;;;;;;;-144.47;100.00;61586.06;4923787;29;20295;-82
2022/12/28 09:06:05;;;;;;;;;;;;;;;-144.47;100.00;61586.06;4925184;29;20442;-81
2022/12/28 09:08:31;;;;;;;;;;;;;;;-144.47;100.00;61586.06;4922703;29;19926;-81
2022/12/28 09:11:00;;;;;;;;;;;;;;;-144.47;100.00;61586.06;4925535;28;19918;-81
2022/12/28 09:13:25;;;;;;;;;;;;;;;-144.47;100.00;61586.06;4922470;29;19918;-82
2022/12/28 09:15:58;;;;;;;;;;;;;;;-144.47;100.00;61586.06;4925161;28;20280;-82
2022/12/28 09:18:24;;;;;;;;;;;;;;;-144.47;100.00;61586.06;4922705;29;19965;-82
2022/12/28 09:20:49;;;;;;;;;;;;;;;-144.47;100.00;61586.06;4925005;29;19954;-82
2022/12/28 09:23:14;;;;;;;;;;;;;;;-144.47;100.00;61586.06;4922593;28;19926;-82
2022/12/28 09:25:39;;;;;;;;;;;;;;;-144.47;100.00;61586.06;4922338;29;19925;-82
2022/12/28 09:28:05;;;;;;;;;;;;;;;-144.47;100.00;61586.06;4925123;28;20393;-80
2022/12/28 09:30:30;;;;;;;;;;;;;;;-144.47;100.00;61586.06;4925513;28;20009;-81
2022/12/28 09:35:39;;;;;;;;;;;;;;;-144.47;100.00;61586.06;4926065;29;20014;-81
2022/12/28 09:38:05;;;;;;;;;;;;;;;-144.47;100.00;61586.06;4922329;28;19951;-81
2022/12/28 09:40:32;;;;;;;;;;;;;;;-144.47;100.00;61586.06;4925380;29;19918;-81
2022/12/28 09:42:58;;;;;;;;;;;;;;;-144.47;100.00;61586.06;4925453;28;19958;-81
2022/12/28 09:45:24;;;;;;;;;;;;;;;-144.47;100.00;61586.06;4921986;29;19962;-81
2022/12/28 09:47:54;;;;;;;;;;;;;;;-144.47;100.00;61586.06;4923175;28;19918;-80
2022/12/28 09:50:30;;;;;;;;;;;;;;;-144.47;100.00;61586.06;4937454;29;19922;-81
2022/12/28 09:53:02;;;;;;;;;;;;;;;-144.47;100.00;61586.06;4923827;29;19968;-80
2022/12/28 09:55:28;;;;;;;;;;;;;;;-144.47;100.00;61586.06;4944462;29;19922;-82
2022/12/28 09:57:55;;;;;;;;;;;;;;;-144.47;100.00;61586.06;4926302;29;19922;-81
2022/12/28 10:00:21;;;;;;;;;;;;;;;-144.47;100.00;61586.06;4926082;29;19919;-81
2022/12/28 10:02:53;;;;;;;;;;;;;;;-144.47;100.00;61586.06;4938779;29;20264;-82
2022/12/28 10:05:19;;;;;;;;;;;;;;;-144.47;100.00;61586.06;4922883;29;20336;-81
2022/12/28 10:07:45;;;;;;;;;;;;;;;-144.47;100.00;61586.06;4923658;29;19972;-80
2022/12/28 10:10:14;;;;;;;;;;;;;;;-144.47;100.00;61586.06;4923731;29;20009;-80
2022/12/28 10:12:42;;;;;;;;;;;;;;;-144.47;100.00;61586.06;4923060;29;19930;-81
2022/12/28 10:15:10;;;;;;;;;;;;;;;-144.47;100.00;61586.06;4923687;29;19918;-81
2022/12/28 10:17:36;;;;;;;;;;;;;;;-144.47;100.00;61586.06;4922690;29;19919;-82
2022/12/28 10:20:01;;;;;;;;;;;;;;;-144.47;100.00;61586.06;4925312;29;19918;-81
2022/12/28 10:22:34;;;;;;;;;;;;;;;-144.47;100.00;61586.06;4920579;29;19919;-81
2022/12/28 10:24:59;;;;;;;;;;;;;;;-144.47;100.00;61586.06;4925272;29;19923;-81
2022/12/28 10:27:29;;;;;;;;;;;;;;;-144.47;100.00;61586.06;4921782;29;20303;-81
2022/12/28 10:29:54;;;;;;;;;;;;;;;-144.47;100.00;61586.06;4928075;28;19954;-84
2022/12/28 10:32:19;;;;;;;;;;;;;;;-144.47;100.00;61586.06;4920836;29;19973;-83
2022/12/28 10:34:57;;;;;;;;;;;;;;;-144.47;100.00;61586.06;4923031;29;19922;-82
2022/12/28 10:37:24;;;;;;;;;;;;;;;-144.47;100.00;61586.06;4924421;29;19919;-83
2022/12/28 10:39:55;;;;;;;;;;;;;;;-144.47;100.00;61586.06;4922564;29;19977;-85
2022/12/28 10:42:26;;;;;;;;;;;;;;;-144.47;100.00;61586.06;4924706;29;19922;-86
2022/12/28 10:44:52;;;;;;;;;;;;;;;-144.47;100.00;61586.06;4936614;28;20435;-83
2022/12/28 10:47:29;;;;;;;;;;;;;;;-144.47;100.00;61586.06;4924470;29;20355;-85
2022/12/28 10:49:54;;;;;;;;;;;;;;;-144.47;100.00;61586.06;4922167;29;19955;-85
2022/12/28 10:52:20;;;;;;;;;;;;;;;-144.47;100.00;61586.06;4925959;29;19961;-86
2022/12/28 10:54:46;;;;;;;;;;;;;;;-144.47;100.00;61586.06;4923951;29;19919;-86
2022/12/28 10:57:16;;;;;;;;;;;;;;;-144.47;100.00;61586.06;4923842;29;20001;-86
2022/12/28 10:59:42;;;;;;;;;;;;;;;-144.47;100.00;61586.06;4927200;29;19919;-85
2022/12/28 11:02:25;;;;;;;;;;;;;;;-144.47;100.00;61586.06;4924323;29;19925;-83
2022/12/28 11:04:53;;;;;;;;;;;;;;;-144.47;100.00;61586.06;4924380;29;19923;-85
2022/12/28 11:07:26;;;;;;;;;;;;;;;-144.47;100.00;61586.06;4923787;29;19923;-85
2022/12/28 11:09:51;;;;;;;;;;;;;;;-144.47;100.00;61586.06;4932746;29;19988;-85
2022/12/28 11:12:21;;;;;;;;;;;;;;;-144.47;100.00;61586.06;4923121;29;20423;-86
2022/12/28 11:14:46;;;;;;;;;;;;;;;-144.47;100.00;61586.06;4921492;29;19918;-85
2022/12/28 11:17:22;;;;;;;;;;;;;;;-144.47;100.00;61586.06;4923316;29;20335;-85
2022/12/28 11:19:49;;;;;;;;;;;;;;;-144.47;100.00;61586.06;4923610;29;20012;-85
2022/12/28 11:22:19;;;;;;;;;;;;;;;-144.47;100.00;61586.06;4930207;29;19962;-85
2022/12/28 11:24:44;;;;;;;;;;;;;;;-144.47;100.00;61586.06;4929554;29;19941;-85
2022/12/28 11:27:12;;;;;;;;;;;;;;;-144.47;100.00;61586.06;4919938;29;20363;-84
2022/12/28 11:29:38;;;;;;;;;;;;;;;-144.47;100.00;61586.06;4926754;28;19927;-84
2022/12/28 11:32:07;;;;;;;;;;;;;;;-144.47;100.00;61586.06;4935715;28;19958;-85
2022/12/28 11:34:33;;;;;;;;;;;;;;;-144.47;100.00;61586.06;4939538;28;19926;-84
2022/12/28 11:36:59;;;;;;;;;;;;;;;-144.47;100.00;61586.06;4921313;29;20348;-86
2022/12/28 11:39:25;;;;;;;82.75;41.60;;;;;;;-144.47;100.00;61586.06;4927060;29;19918;-85
2022/12/28 11:41:56;;;;;;;79.40;39.53;;;;;;;-144.47;100.00;61586.06;4925004;29;20039;-84
2022/12/28 11:44:33;;;;;;;76.72;38.45;;;;;;;-144.47;100.00;61586.06;4940044;22;20144;-84
2022/12/28 11:47:18;;;;;;;77.18;40.35;;;;;;;-144.47;100.00;61586.06;4940242;29;20099;-86
2022/12/28 11:49:46;;;;;;;78.15;38.92;;;;;;;-144.47;100.00;61586.06;4940685;29;20118;-84
2022/12/28 11:52:19;;;;;;;71.65;38.70;;;;;;;-144.47;100.00;61586.06;4943791;29;20039;-84
2022/12/28 11:54:53;;;;;;;78.82;39.00;;;;;;;-144.47;100.00;61586.06;4942902;29;20028;-84
2022/12/28 11:57:35;;;;;;;73.53;38.53;;;;;;;-144.47;100.00;61586.06;4955641;28;20101;-85
2022/12/28 12:00:16;;;;;;;68.03;36.90;;;;;;;-144.47;100.00;61586.06;4940762;28;20098;-86
2022/12/28 12:02:50;;;;;;;69.68;37.75;;;;;;;-144.47;100.00;61586.06;4940311;29;20040;-86
2022/12/28 12:05:34;;;;;;;64.78;38.15;;;;;;;-144.47;100.00;61586.06;4939153;29;20503;-85
2022/12/28 12:08:00;;;;;;;78.22;39.85;;;;;;;-144.47;100.00;61586.06;4935931;29;20093;-85
2022/12/28 12:10:32;;;;;;;76.78;38.72;;;;;;;-144.47;100.00;61586.06;4942976;28;20098;-86
2022/12/28 12:13:00;;;;;;;71.00;37.55;;;;;;;-144.47;100.00;61586.06;4948525;29;20053;-83
2022/12/28 12:15:39;;;;;;;75.97;38.72;;;;;;;-144.47;100.00;61586.06;4945691;28;20153;-85
2022/12/28 12:18:12;;;;;;;75.47;39.13;;;;;;;-144.47;100.00;61586.06;4940659;29;20402;-84
2022/12/28 12:20:38;;;;;;;69.00;37.97;;;;;;;-144.47;100.00;61586.06;4952240;28;20041;-85
2022/12/28 12:23:29;;;;;;;83.70;38.72;;;;;;;-144.47;100.00;61586.06;4954179;29;20055;-85
2022/12/28 12:25:58;;;;;;;73.93;38.83;;;;;;;-144.47;100.00;61586.06;4953308;29;20105;-85
2022/12/28 12:28:39;;;;;;;75.47;40.10;;;;;;;-144.47;100.00;61586.06;4943109;28;20521;-84
2022/12/28 12:31:13;;;;;;;75.03;40.33;;;;;;;-144.47;100.00;61586.06;4937438;29;20142;-85
2022/12/28 12:33:45;;;;;;;70.00;39.70;;;;;;;-144.47;100.00;61586.06;4940503;29;20503;-86
2022/12/28 12:36:37;;;;;;;74.93;38.72;;;;;;;-144.47;100.00;61586.06;4941182;28;20035;-85
2022/12/28 12:39:22;;;;;;;74.95;39.72;;;;;;;-144.47;100.00;61586.06;4938884;29;20074;-85
2022/12/28 12:42:13;;;;;;;74.50;39.90;;;;;;;-144.47;100.00;61586.06;4948544;28;20036;-86
2022/12/28 12:44:50;;;;;;;70.53;39.92;;;;;;;-144.47;100.00;61586.06;4939225;29;20042;-86
2022/12/28 12:47:43;;;;;;;73.10;38.25;;;;;;;-144.47;100.00;61586.06;4938760;29;20044;-85
2022/12/28 12:50:17;;;;;;;80.43;40.00;;;;;;;-144.47;100.00;61586.06;4938182;29;20127;-84
2022/12/28 12:53:05;;;;;;;78.07;39.63;;;;;;;-144.47;100.00;61586.06;4940323;29;20042;-85
2022/12/28 12:55:53;;;;;;;81.38;40.67;;;;;;;-144.47;100.00;61586.06;4941877;29;20038;-84
2022/12/28 12:58:54;;;;;;;81.53;40.20;;;;;;;-144.47;100.00;61586.06;4940674;28;20035;-85